createdAt,value
2017-03-18T00:00:05.214Z,8.62
2017-03-18T00:00:47.684Z,8.56
2017-03-18T00:01:28.206Z,8.66
2017-03-18T00:02:08.764Z,8.52
2017-03-18T00:02:49.250Z,8.55
2017-03-18T00:03:29.757Z,8.55
2017-03-18T00:04:10.283Z,8.58
2017-03-18T00:04:50.807Z,8.55
2017-03-18T00:05:31.319Z,8.58
2017-03-18T00:06:11.859Z,8.56
2017-03-18T00:06:52.342Z,8.53
2017-03-18T00:07:32.857Z,8.58
2017-03-18T00:08:13.378Z,8.53
2017-03-18T00:08:53.902Z,8.5
2017-03-18T00:09:34.408Z,8.45
2017-03-18T00:10:14.932Z,8.44
2017-03-18T00:10:55.457Z,8.47
2017-03-18T00:11:35.997Z,8.41
2017-03-18T00:12:16.507Z,8.36
2017-03-18T00:12:57.046Z,8.41
2017-03-18T00:13:37.577Z,8.38
2017-03-18T00:14:18.088Z,8.4
2017-03-18T00:14:58.619Z,8.44
2017-03-18T00:15:39.134Z,8.41
2017-03-18T00:16:19.675Z,8.44
2017-03-18T00:17:00.203Z,8.45
2017-03-18T00:17:40.729Z,8.43
2017-03-18T00:18:21.258Z,8.41
2017-03-18T00:19:01.775Z,8.28
2017-03-18T00:19:42.287Z,8.3
2017-03-18T00:20:22.817Z,8.22
2017-03-18T00:21:03.328Z,8.08
2017-03-18T00:21:43.844Z,8.07
2017-03-18T00:22:24.400Z,8.07
2017-03-18T00:23:04.896Z,7.97
2017-03-18T00:23:45.403Z,8.04
2017-03-18T00:24:25.909Z,7.97
2017-03-18T00:25:06.416Z,7.92
2017-03-18T00:25:46.945Z,7.95
2017-03-18T00:26:27.459Z,7.87
2017-03-18T00:27:07.985Z,7.93
2017-03-18T00:27:48.513Z,7.98
2017-03-18T00:28:29.021Z,7.93
2017-03-18T00:29:09.523Z,7.89
2017-03-18T00:29:50.029Z,7.75
2017-03-18T00:30:30.539Z,7.83
2017-03-18T00:31:11.076Z,7.8
2017-03-18T00:31:51.609Z,7.79
2017-03-18T00:32:32.117Z,7.74
2017-03-18T00:33:12.648Z,7.71
2017-03-18T00:33:53.192Z,7.67
2017-03-18T00:34:33.702Z,7.72
2017-03-18T00:35:14.224Z,7.53
2017-03-18T00:35:54.750Z,7.52
2017-03-18T00:36:35.268Z,7.5
2017-03-18T00:37:15.783Z,7.64
2017-03-18T00:37:56.310Z,7.57
2017-03-18T00:38:36.816Z,7.52
2017-03-18T00:39:17.354Z,7.55
2017-03-18T00:39:57.866Z,7.57
2017-03-18T00:40:38.400Z,7.5
2017-03-18T00:41:18.907Z,7.49
2017-03-18T00:41:59.414Z,7.53
2017-03-18T00:42:39.936Z,7.55
2017-03-18T00:43:20.455Z,7.5
2017-03-18T00:44:00.972Z,7.55
2017-03-18T00:44:41.489Z,7.49
2017-03-18T00:45:22.000Z,7.45
2017-03-18T00:46:02.516Z,7.42
2017-03-18T00:46:43.052Z,7.46
2017-03-18T00:47:23.538Z,7.45
2017-03-18T00:48:04.060Z,7.43
2017-03-18T00:48:44.571Z,7.43
2017-03-18T00:49:25.110Z,7.37
2017-03-18T00:50:05.624Z,7.4
2017-03-18T00:50:46.119Z,7.45
2017-03-18T00:51:26.641Z,7.49
2017-03-18T00:52:07.164Z,7.35
2017-03-18T00:52:47.690Z,7.35
2017-03-18T00:53:28.201Z,7.42
2017-03-18T00:54:08.721Z,7.45
2017-03-18T00:54:49.242Z,7.45
2017-03-18T00:55:29.741Z,7.43
2017-03-18T00:56:10.261Z,7.46
2017-03-18T00:56:51.611Z,7.4
2017-03-18T00:57:32.121Z,7.42
2017-03-18T00:58:12.637Z,7.43
2017-03-18T00:58:53.140Z,7.42
2017-03-18T00:59:33.650Z,7.45
2017-03-18T01:00:14.169Z,7.49
2017-03-18T01:00:54.668Z,7.43
2017-03-18T01:01:35.193Z,7.4
2017-03-18T01:02:15.700Z,7.43
2017-03-18T01:02:56.206Z,7.4
2017-03-18T01:03:36.703Z,7.35
2017-03-18T01:04:17.202Z,7.3
2017-03-18T01:04:57.723Z,7.31
2017-03-18T01:05:38.246Z,7.31
2017-03-18T01:06:18.771Z,7.27
2017-03-18T01:06:59.285Z,7.23
2017-03-18T01:07:39.808Z,7.24
2017-03-18T01:08:20.322Z,7.24
2017-03-18T01:09:00.828Z,7.13
2017-03-18T01:09:41.339Z,7.13
2017-03-18T01:10:21.860Z,7.16
2017-03-18T01:11:02.386Z,7.15
2017-03-18T01:11:42.891Z,7.1
2017-03-18T01:12:23.402Z,7.1
2017-03-18T01:13:03.908Z,7.16
2017-03-18T01:13:44.430Z,7.06
2017-03-18T01:14:24.934Z,7.15
2017-03-18T01:15:05.459Z,7.16
2017-03-18T01:15:45.964Z,7.13
2017-03-18T01:16:26.479Z,7.03
2017-03-18T01:17:07.020Z,7.09
2017-03-18T01:17:47.509Z,7.06
2017-03-18T01:18:28.022Z,7.03
2017-03-18T01:19:08.509Z,7.07
2017-03-18T01:19:49.039Z,7.05
2017-03-18T01:20:29.536Z,7.09
2017-03-18T01:21:10.085Z,7.09
2017-03-18T01:21:50.577Z,7.09
2017-03-18T01:22:31.101Z,7.03
2017-03-18T01:23:11.619Z,6.95
2017-03-18T01:23:52.138Z,7.06
2017-03-18T01:24:32.649Z,6.94
2017-03-18T01:25:13.154Z,7.02
2017-03-18T01:25:53.679Z,6.85
2017-03-18T01:26:34.185Z,6.81
2017-03-18T01:27:14.708Z,6.79
2017-03-18T01:27:55.221Z,6.79
2017-03-18T01:28:35.709Z,6.87
2017-03-18T01:29:16.230Z,6.73
2017-03-18T01:29:56.748Z,6.69
2017-03-18T01:30:37.264Z,6.73
2017-03-18T01:31:17.779Z,6.76
2017-03-18T01:31:58.283Z,6.69
2017-03-18T01:32:38.781Z,6.69
2017-03-18T01:33:19.296Z,6.76
2017-03-18T01:33:59.804Z,6.69
2017-03-18T01:34:40.309Z,6.69
2017-03-18T01:35:20.807Z,6.59
2017-03-18T01:36:01.337Z,6.62
2017-03-18T01:36:41.844Z,6.67
2017-03-18T01:37:22.372Z,6.7
2017-03-18T01:38:02.884Z,6.62
2017-03-18T01:38:43.423Z,6.59
2017-03-18T01:39:23.944Z,6.58
2017-03-18T01:40:04.458Z,6.64
2017-03-18T01:40:44.981Z,6.66
2017-03-18T01:41:25.502Z,6.61
2017-03-18T01:42:06.016Z,6.59
2017-03-18T01:42:46.540Z,6.58
2017-03-18T01:43:27.070Z,6.55
2017-03-18T01:44:07.562Z,6.61
2017-03-18T01:44:48.109Z,6.56
2017-03-18T01:45:28.634Z,6.48
2017-03-18T01:46:09.182Z,6.49
2017-03-18T01:46:49.701Z,6.54
2017-03-18T01:47:30.214Z,6.61
2017-03-18T01:48:10.736Z,6.51
2017-03-18T01:48:51.257Z,6.61
2017-03-18T01:49:31.770Z,6.56
2017-03-18T01:50:12.294Z,6.58
2017-03-18T01:50:52.812Z,6.52
2017-03-18T01:51:33.326Z,6.55
2017-03-18T01:52:13.854Z,6.56
2017-03-18T01:52:54.397Z,6.49
2017-03-18T01:53:34.916Z,6.55
2017-03-18T01:54:15.428Z,6.51
2017-03-18T01:54:55.948Z,6.52
2017-03-18T01:55:36.466Z,6.55
2017-03-18T01:56:16.981Z,6.49
2017-03-18T01:56:57.493Z,6.51
2017-03-18T01:57:38.010Z,6.58
2017-03-18T01:58:18.506Z,6.58
2017-03-18T01:58:59.036Z,6.58
2017-03-18T01:59:39.561Z,6.61
2017-03-18T02:00:20.075Z,6.59
2017-03-18T02:01:00.632Z,6.59
2017-03-18T02:01:41.149Z,6.58
2017-03-18T02:02:21.643Z,6.59
2017-03-18T02:03:02.145Z,6.61
2017-03-18T02:03:42.677Z,6.56
2017-03-18T02:04:23.198Z,6.59
2017-03-18T02:05:03.706Z,6.59
2017-03-18T02:05:44.235Z,6.59
2017-03-18T02:06:24.749Z,6.58
2017-03-18T02:07:05.274Z,6.59
2017-03-18T02:07:45.789Z,6.58
2017-03-18T02:08:26.288Z,6.59
2017-03-18T02:09:06.804Z,6.59
2017-03-18T02:09:47.323Z,6.55
2017-03-18T02:10:27.852Z,6.54
2017-03-18T02:11:08.372Z,6.59
2017-03-18T02:11:48.852Z,6.61
2017-03-18T02:12:29.370Z,6.62
2017-03-18T02:13:09.878Z,6.66
2017-03-18T02:13:50.393Z,6.64
2017-03-18T02:14:30.910Z,6.66
2017-03-18T02:15:11.408Z,6.69
2017-03-18T02:15:51.938Z,6.61
2017-03-18T02:16:32.465Z,6.67
2017-03-18T02:17:12.961Z,6.69
2017-03-18T02:17:53.486Z,6.71
2017-03-18T02:18:34.016Z,6.76
2017-03-18T02:19:14.525Z,6.76
2017-03-18T02:19:55.053Z,6.77
2017-03-18T02:20:35.564Z,6.77
2017-03-18T02:21:16.088Z,6.79
2017-03-18T02:21:56.618Z,6.71
2017-03-18T02:22:37.110Z,6.79
2017-03-18T02:23:17.657Z,6.76
2017-03-18T02:23:58.178Z,6.7
2017-03-18T02:24:38.709Z,6.76
2017-03-18T02:25:19.207Z,6.77
2017-03-18T02:25:59.746Z,6.77
2017-03-18T02:26:40.277Z,6.87
2017-03-18T02:27:20.809Z,6.91
2017-03-18T02:28:01.296Z,6.91
2017-03-18T02:28:41.819Z,6.94
2017-03-18T02:29:22.327Z,6.94
2017-03-18T02:30:02.832Z,6.89
2017-03-18T02:30:43.345Z,6.97
2017-03-18T02:31:23.838Z,6.99
2017-03-18T02:32:04.318Z,6.99
2017-03-18T02:32:44.829Z,7.09
2017-03-18T02:33:25.344Z,7.05
2017-03-18T02:34:05.842Z,7.02
2017-03-18T02:34:46.362Z,7.12
2017-03-18T02:35:26.870Z,7.09
2017-03-18T02:36:07.372Z,7.13
2017-03-18T02:36:47.877Z,7.12
2017-03-18T02:37:28.386Z,7.24
2017-03-18T02:38:08.918Z,7.13
2017-03-18T02:38:49.390Z,7.2
2017-03-18T02:39:29.919Z,7.17
2017-03-18T02:40:10.441Z,7.25
2017-03-18T02:40:50.939Z,7.24
2017-03-18T02:41:31.429Z,7.27
2017-03-18T02:42:11.938Z,7.23
2017-03-18T02:42:52.444Z,7.21
2017-03-18T02:43:32.972Z,7.28
2017-03-18T02:44:13.483Z,7.31
2017-03-18T02:44:54.008Z,7.31
2017-03-18T02:45:34.510Z,7.21
2017-03-18T02:46:15.027Z,7.16
2017-03-18T02:46:55.558Z,7.23
2017-03-18T02:47:36.093Z,7.2
2017-03-18T02:48:16.569Z,7.2
2017-03-18T02:48:57.080Z,7.2
2017-03-18T02:49:37.594Z,7.27
2017-03-18T02:50:18.115Z,7.21
2017-03-18T02:50:58.625Z,7.25
2017-03-18T02:51:39.125Z,7.17
2017-03-18T02:52:19.640Z,7.21
2017-03-18T02:53:00.146Z,7.28
2017-03-18T02:53:40.659Z,7.3
2017-03-18T02:54:21.166Z,7.21
2017-03-18T02:55:01.722Z,7.24
2017-03-18T02:55:42.229Z,7.25
2017-03-18T02:56:22.751Z,7.25
2017-03-18T02:57:03.263Z,7.16
2017-03-18T02:57:44.615Z,7.24
2017-03-18T02:58:25.148Z,7.25
2017-03-18T02:59:05.673Z,7.23
2017-03-18T02:59:46.184Z,7.2
2017-03-18T03:00:26.712Z,7.21
2017-03-18T03:01:07.207Z,7.31
2017-03-18T03:01:47.712Z,7.27
2017-03-18T03:02:28.241Z,7.23
2017-03-18T03:03:08.730Z,7.2
2017-03-18T03:03:49.220Z,7.32
2017-03-18T03:04:29.716Z,7.27
2017-03-18T03:05:10.262Z,7.28
2017-03-18T03:05:50.753Z,7.3
2017-03-18T03:06:31.258Z,7.31
2017-03-18T03:07:11.738Z,7.4
2017-03-18T03:07:52.257Z,7.43
2017-03-18T03:08:32.781Z,7.46
2017-03-18T03:09:13.295Z,7.49
2017-03-18T03:09:53.823Z,7.48
2017-03-18T03:10:34.315Z,7.46
2017-03-18T03:11:14.826Z,7.48
2017-03-18T03:11:55.326Z,7.52
2017-03-18T03:12:35.834Z,7.52
2017-03-18T03:13:16.365Z,7.5
2017-03-18T03:13:56.906Z,7.57
2017-03-18T03:14:37.412Z,7.53
2017-03-18T03:15:17.909Z,7.5
2017-03-18T03:15:58.395Z,7.53
2017-03-18T03:16:38.928Z,7.48
2017-03-18T03:17:19.458Z,7.5
2017-03-18T03:17:59.967Z,7.53
2017-03-18T03:18:40.496Z,7.57
2017-03-18T03:19:21.004Z,7.71
2017-03-18T03:20:01.503Z,7.64
2017-03-18T03:20:42.018Z,7.68
2017-03-18T03:21:22.522Z,7.67
2017-03-18T03:22:03.034Z,7.72
2017-03-18T03:22:43.560Z,7.74
2017-03-18T03:23:24.068Z,7.74
2017-03-18T03:24:04.641Z,7.77
2017-03-18T03:24:45.142Z,7.8
2017-03-18T03:25:25.683Z,7.77
2017-03-18T03:26:06.144Z,7.79
2017-03-18T03:26:46.643Z,7.86
2017-03-18T03:27:27.167Z,7.85
2017-03-18T03:28:07.689Z,7.77
2017-03-18T03:28:48.204Z,7.8
2017-03-18T03:29:28.713Z,7.79
2017-03-18T03:30:09.214Z,7.82
2017-03-18T03:30:49.717Z,7.82
2017-03-18T03:31:30.233Z,7.89
2017-03-18T03:32:10.757Z,7.8
2017-03-18T03:32:51.278Z,7.86
2017-03-18T03:33:31.797Z,7.85
2017-03-18T03:34:12.312Z,7.86
2017-03-18T03:34:52.802Z,7.86
2017-03-18T03:35:33.324Z,7.9
2017-03-18T03:36:13.838Z,7.89
2017-03-18T03:36:54.332Z,7.92
2017-03-18T03:37:34.865Z,7.92
2017-03-18T03:38:15.349Z,7.95
2017-03-18T03:38:55.877Z,7.95
2017-03-18T03:39:36.393Z,7.97
2017-03-18T03:40:16.881Z,7.93
2017-03-18T03:40:57.407Z,7.89
2017-03-18T03:41:37.902Z,7.95
2017-03-18T03:42:18.414Z,8.01
2017-03-18T03:42:58.955Z,7.97
2017-03-18T03:43:39.454Z,7.98
2017-03-18T03:44:19.954Z,8
2017-03-18T03:45:00.466Z,7.92
2017-03-18T03:45:40.978Z,7.97
2017-03-18T03:46:21.483Z,7.92
2017-03-18T03:47:01.988Z,7.98
2017-03-18T03:47:42.508Z,7.9
2017-03-18T03:48:23.004Z,8
2017-03-18T03:49:03.502Z,8.04
2017-03-18T03:49:43.989Z,8.05
2017-03-18T03:50:24.484Z,8.05
2017-03-18T03:51:04.991Z,8.05
2017-03-18T03:51:45.503Z,8.08
2017-03-18T03:52:26.026Z,8.02
2017-03-18T03:53:06.529Z,8.05
2017-03-18T03:53:47.062Z,8.05
2017-03-18T03:54:27.579Z,8.04
2017-03-18T03:55:08.087Z,8.05
2017-03-18T03:55:48.610Z,8.1
2017-03-18T03:56:29.092Z,8.1
2017-03-18T03:57:09.600Z,8.08
2017-03-18T03:57:50.118Z,8.1
2017-03-18T03:58:30.625Z,8.12
2017-03-18T03:59:11.114Z,8.07
2017-03-18T03:59:51.623Z,8.1
2017-03-18T04:00:32.138Z,8.07
2017-03-18T04:01:12.679Z,8.12
2017-03-18T04:01:53.197Z,8.08
2017-03-18T04:02:33.707Z,8.08
2017-03-18T04:03:14.222Z,8.12
2017-03-18T04:03:54.725Z,8.11
2017-03-18T04:04:35.226Z,8.05
2017-03-18T04:05:15.731Z,8.07
2017-03-18T04:05:56.265Z,8.16
2017-03-18T04:06:36.758Z,8.16
2017-03-18T04:07:17.304Z,8.11
2017-03-18T04:07:57.794Z,8.18
2017-03-18T04:08:38.287Z,8.25
2017-03-18T04:09:18.799Z,8.22
2017-03-18T04:09:59.310Z,8.22
2017-03-18T04:10:39.813Z,8.23
2017-03-18T04:11:20.326Z,8.2
2017-03-18T04:12:00.828Z,8.23
2017-03-18T04:12:41.337Z,8.2
2017-03-18T04:13:21.868Z,8.26
2017-03-18T04:14:02.367Z,8.29
2017-03-18T04:14:42.870Z,8.28
2017-03-18T04:15:23.394Z,8.37
2017-03-18T04:16:03.906Z,8.36
2017-03-18T04:16:44.413Z,8.28
2017-03-18T04:17:24.934Z,8.29
2017-03-18T04:18:05.452Z,8.29
2017-03-18T04:18:45.978Z,8.29
2017-03-18T04:19:26.500Z,8.25
2017-03-18T04:20:07.001Z,8.33
2017-03-18T04:20:47.538Z,8.26
2017-03-18T04:21:28.042Z,8.36
2017-03-18T04:22:08.548Z,8.37
2017-03-18T04:22:49.072Z,8.45
2017-03-18T04:23:29.579Z,8.4
2017-03-18T04:24:10.090Z,8.44
2017-03-18T04:24:50.608Z,8.44
2017-03-18T04:25:31.122Z,8.5
2017-03-18T04:26:11.640Z,8.5
2017-03-18T04:26:52.160Z,8.53
2017-03-18T04:27:32.657Z,8.55
2017-03-18T04:28:13.190Z,8.55
2017-03-18T04:28:53.751Z,8.59
2017-03-18T04:29:34.236Z,8.48
2017-03-18T04:30:14.737Z,8.58
2017-03-18T04:30:55.283Z,8.56
2017-03-18T04:31:36.165Z,8.61
2017-03-18T04:32:16.918Z,8.74
2017-03-18T04:32:57.520Z,8.71
2017-03-18T04:33:38.143Z,8.7
2017-03-18T04:34:18.670Z,8.73
2017-03-18T04:34:59.191Z,8.65
2017-03-18T04:35:39.706Z,8.63
2017-03-18T04:36:20.269Z,8.76
2017-03-18T04:37:01.254Z,8.73
2017-03-18T04:37:41.774Z,8.76
2017-03-18T04:38:22.324Z,8.68
2017-03-18T04:39:02.863Z,8.68
2017-03-18T04:39:43.375Z,8.71
2017-03-18T04:40:23.909Z,8.77
2017-03-18T04:41:04.432Z,8.7
2017-03-18T04:41:45.051Z,8.68
2017-03-18T04:42:25.533Z,8.8
2017-03-18T04:43:06.077Z,8.76
2017-03-18T04:43:46.580Z,8.83
2017-03-18T04:44:27.177Z,8.79
2017-03-18T04:45:07.763Z,8.8
2017-03-18T04:45:48.298Z,8.84
2017-03-18T04:46:28.860Z,8.87
2017-03-18T04:47:09.434Z,8.87
2017-03-18T04:47:49.913Z,8.91
2017-03-18T04:48:30.455Z,8.94
2017-03-18T04:49:10.959Z,8.92
2017-03-18T04:49:51.454Z,8.89
2017-03-18T04:50:32.011Z,8.92
2017-03-18T04:51:12.734Z,8.99
2017-03-18T04:51:53.159Z,8.87
2017-03-18T04:52:33.710Z,8.91
2017-03-18T04:53:14.292Z,8.94
2017-03-18T04:53:54.827Z,8.95
2017-03-18T04:54:35.424Z,8.95
2017-03-18T04:55:16.009Z,8.94
2017-03-18T04:55:56.573Z,8.92
2017-03-18T04:56:37.130Z,8.87
2017-03-18T04:57:17.753Z,8.91
2017-03-18T04:57:58.302Z,8.89
2017-03-18T04:58:38.767Z,8.91
2017-03-18T04:59:19.319Z,8.99
2017-03-18T04:59:59.819Z,9.05
2017-03-18T05:00:40.332Z,9.08
2017-03-18T05:01:20.824Z,9.04
2017-03-18T05:02:01.326Z,9.08
2017-03-18T05:02:41.853Z,9.02
2017-03-18T05:03:22.367Z,9.05
2017-03-18T05:04:02.886Z,9.1
2017-03-18T05:04:43.411Z,9.08
2017-03-18T05:05:23.989Z,9.04
2017-03-18T05:06:04.498Z,9.02
2017-03-18T05:06:45.030Z,9.04
2017-03-18T05:07:25.570Z,9.15
2017-03-18T05:08:06.065Z,9.15
2017-03-18T05:08:46.568Z,9.14
2017-03-18T05:09:27.076Z,9.17
2017-03-18T05:10:07.615Z,9.24
2017-03-18T05:10:48.109Z,9.21
2017-03-18T05:11:28.619Z,9.24
2017-03-18T05:12:09.117Z,9.18
2017-03-18T05:12:49.676Z,9.18
2017-03-18T05:13:30.186Z,9.23
2017-03-18T05:14:10.718Z,9.21
2017-03-18T05:14:51.234Z,9.17
2017-03-18T05:15:31.745Z,9.15
2017-03-18T05:16:12.292Z,9.23
2017-03-18T05:16:52.783Z,9.23
2017-03-18T05:17:33.330Z,9.2
2017-03-18T05:18:13.806Z,9.23
2017-03-18T05:18:54.338Z,9.24
2017-03-18T05:19:34.843Z,9.21
2017-03-18T05:20:15.376Z,9.2
2017-03-18T05:20:55.918Z,9.21
2017-03-18T05:21:36.431Z,9.23
2017-03-18T05:22:16.942Z,9.24
2017-03-18T05:22:57.440Z,9.26
2017-03-18T05:23:37.981Z,9.23
2017-03-18T05:24:18.586Z,9.24
2017-03-18T05:24:59.049Z,9.35
2017-03-18T05:25:39.675Z,9.29
2017-03-18T05:26:20.205Z,9.26
2017-03-18T05:27:00.791Z,9.36
2017-03-18T05:27:41.338Z,9.31
2017-03-18T05:28:21.853Z,9.36
2017-03-18T05:29:02.357Z,9.35
2017-03-18T05:29:42.865Z,9.39
2017-03-18T05:30:23.356Z,9.36
2017-03-18T05:31:03.873Z,9.31
2017-03-18T05:31:44.383Z,9.31
2017-03-18T05:32:24.897Z,9.32
2017-03-18T05:33:05.413Z,9.35
2017-03-18T05:33:45.932Z,9.31
2017-03-18T05:34:26.424Z,9.38
2017-03-18T05:35:06.964Z,9.4
2017-03-18T05:35:47.468Z,9.43
2017-03-18T05:36:27.970Z,9.42
2017-03-18T05:37:08.482Z,9.42
2017-03-18T05:37:48.994Z,9.39
2017-03-18T05:38:29.500Z,9.5
2017-03-18T05:39:10.021Z,9.48
2017-03-18T05:39:50.538Z,9.48
2017-03-18T05:40:31.050Z,9.57
2017-03-18T05:41:11.558Z,9.48
2017-03-18T05:41:52.073Z,9.54
2017-03-18T05:42:32.565Z,9.5
2017-03-18T05:43:13.087Z,9.58
2017-03-18T05:43:53.597Z,9.61
2017-03-18T05:44:34.131Z,9.69
2017-03-18T05:45:14.617Z,9.69
2017-03-18T05:45:55.126Z,9.68
2017-03-18T05:46:35.657Z,9.66
2017-03-18T05:47:16.171Z,9.71
2017-03-18T05:47:56.704Z,9.81
2017-03-18T05:48:37.196Z,9.78
2017-03-18T05:49:17.715Z,9.75
2017-03-18T05:49:58.228Z,9.76
2017-03-18T05:50:38.729Z,9.81
2017-03-18T05:51:19.245Z,9.76
2017-03-18T05:51:59.780Z,9.83
2017-03-18T05:52:40.274Z,9.86
2017-03-18T05:53:20.795Z,9.81
2017-03-18T05:54:01.302Z,9.75
2017-03-18T05:54:41.822Z,9.76
2017-03-18T05:55:22.328Z,9.79
2017-03-18T05:56:02.851Z,9.72
2017-03-18T05:56:43.346Z,9.76
2017-03-18T05:57:23.863Z,9.81
2017-03-18T05:58:04.383Z,9.75
2017-03-18T05:58:44.892Z,9.69
2017-03-18T05:59:25.456Z,9.72
2017-03-18T06:00:05.971Z,9.74
2017-03-18T06:00:46.470Z,9.86
2017-03-18T06:01:26.987Z,9.74
2017-03-18T06:02:07.476Z,9.84
2017-03-18T06:02:48.001Z,9.83
2017-03-18T06:03:28.494Z,9.84
2017-03-18T06:04:08.997Z,9.74
2017-03-18T06:04:49.515Z,9.69
2017-03-18T06:05:30.029Z,9.83
2017-03-18T06:06:10.551Z,9.86
2017-03-18T06:06:51.046Z,9.75
2017-03-18T06:07:31.562Z,9.87
2017-03-18T06:08:12.073Z,9.71
2017-03-18T06:08:52.598Z,9.71
2017-03-18T06:09:33.088Z,9.75
2017-03-18T06:10:13.598Z,9.87
2017-03-18T06:10:54.109Z,9.81
2017-03-18T06:11:34.631Z,9.79
2017-03-18T06:12:15.149Z,9.76
2017-03-18T06:12:55.677Z,9.83
2017-03-18T06:13:36.199Z,9.78
2017-03-18T06:14:16.715Z,9.91
2017-03-18T06:14:57.203Z,9.93
2017-03-18T06:15:37.729Z,9.84
2017-03-18T06:16:18.245Z,9.87
2017-03-18T06:16:58.763Z,9.97
2017-03-18T06:17:39.287Z,9.94
2017-03-18T06:18:19.776Z,9.93
2017-03-18T06:19:00.287Z,9.89
2017-03-18T06:19:40.797Z,9.9
2017-03-18T06:20:21.294Z,10.01
2017-03-18T06:21:01.818Z,10.02
2017-03-18T06:21:42.329Z,9.93
2017-03-18T06:22:22.844Z,10.01
2017-03-18T06:23:03.366Z,10.05
2017-03-18T06:23:43.939Z,9.9
2017-03-18T06:24:24.441Z,9.87
2017-03-18T06:25:04.972Z,10.01
2017-03-18T06:25:45.481Z,9.94
2017-03-18T06:26:26.016Z,9.96
2017-03-18T06:27:06.544Z,10.01
2017-03-18T06:27:47.062Z,10.01
2017-03-18T06:28:27.566Z,9.97
2017-03-18T06:29:08.077Z,10.04
2017-03-18T06:29:48.628Z,9.97
2017-03-18T06:30:29.148Z,10.02
2017-03-18T06:31:09.658Z,9.87
2017-03-18T06:31:50.156Z,9.97
2017-03-18T06:32:30.691Z,9.89
2017-03-18T06:33:11.236Z,9.91
2017-03-18T06:33:51.751Z,9.86
2017-03-18T06:34:32.271Z,9.9
2017-03-18T06:35:12.787Z,9.96
2017-03-18T06:35:53.303Z,9.89
2017-03-18T06:36:33.832Z,9.87
2017-03-18T06:37:14.350Z,9.86
2017-03-18T06:37:54.874Z,9.9
2017-03-18T06:38:35.412Z,9.89
2017-03-18T06:39:15.904Z,9.9
2017-03-18T06:39:56.496Z,9.89
2017-03-18T06:40:37.052Z,9.86
2017-03-18T06:41:17.561Z,9.9
2017-03-18T06:41:58.093Z,9.9
2017-03-18T06:42:38.652Z,9.78
2017-03-18T06:43:19.182Z,9.89
2017-03-18T06:43:59.713Z,9.84
2017-03-18T06:44:40.230Z,9.9
2017-03-18T06:45:20.719Z,9.83
2017-03-18T06:46:01.238Z,9.86
2017-03-18T06:46:41.748Z,9.86
2017-03-18T06:47:22.507Z,9.87
2017-03-18T06:48:03.262Z,9.79
2017-03-18T06:48:43.767Z,9.83
2017-03-18T06:49:24.267Z,9.84
2017-03-18T06:50:04.780Z,9.83
2017-03-18T06:50:45.301Z,9.75
2017-03-18T06:51:25.823Z,9.83
2017-03-18T06:52:06.341Z,9.79
2017-03-18T06:52:46.878Z,9.81
2017-03-18T06:53:27.397Z,9.86
2017-03-18T06:54:07.902Z,9.83
2017-03-18T06:54:48.425Z,9.84
2017-03-18T06:55:28.945Z,9.74
2017-03-18T06:56:09.476Z,9.75
2017-03-18T06:56:49.977Z,9.76
2017-03-18T06:57:30.495Z,9.81
2017-03-18T06:58:11.018Z,9.74
2017-03-18T06:58:51.526Z,9.74
2017-03-18T06:59:32.049Z,9.69
2017-03-18T07:00:12.560Z,9.78
2017-03-18T07:00:53.076Z,9.84
2017-03-18T07:01:33.587Z,9.69
2017-03-18T07:02:14.096Z,9.84
2017-03-18T07:02:54.622Z,9.83
2017-03-18T07:03:35.149Z,9.78
2017-03-18T07:04:15.665Z,9.78
2017-03-18T07:04:56.189Z,9.74
2017-03-18T07:05:36.688Z,9.74
2017-03-18T07:06:17.193Z,9.78
2017-03-18T07:06:57.694Z,9.79
2017-03-18T07:07:38.207Z,9.74
2017-03-18T07:08:18.713Z,9.74
2017-03-18T07:08:59.216Z,9.79
2017-03-18T07:09:39.742Z,9.81
2017-03-18T07:10:20.261Z,9.84
2017-03-18T07:11:00.789Z,9.86
2017-03-18T07:11:41.308Z,9.78
2017-03-18T07:12:21.786Z,9.87
2017-03-18T07:13:02.298Z,9.86
2017-03-18T07:13:42.799Z,9.9
2017-03-18T07:14:23.307Z,9.9
2017-03-18T07:15:03.821Z,9.89
2017-03-18T07:15:44.352Z,9.86
2017-03-18T07:16:24.856Z,9.86
2017-03-18T07:17:05.364Z,9.79
2017-03-18T07:17:45.881Z,9.84
2017-03-18T07:18:26.397Z,9.89
2017-03-18T07:19:06.919Z,9.87
2017-03-18T07:19:47.438Z,9.91
2017-03-18T07:20:27.958Z,9.87
2017-03-18T07:21:08.476Z,9.86
2017-03-18T07:21:48.987Z,9.79
2017-03-18T07:22:29.505Z,9.9
2017-03-18T07:23:10.025Z,9.86
2017-03-18T07:23:50.546Z,9.9
2017-03-18T07:24:31.084Z,9.89
2017-03-18T07:25:11.605Z,9.9
2017-03-18T07:25:52.109Z,9.86
2017-03-18T07:26:32.637Z,9.89
2017-03-18T07:27:13.148Z,9.87
2017-03-18T07:27:53.666Z,9.86
2017-03-18T07:28:34.190Z,9.93
2017-03-18T07:29:14.714Z,9.84
2017-03-18T07:29:55.228Z,9.87
2017-03-18T07:30:35.749Z,9.87
2017-03-18T07:31:16.246Z,9.86
2017-03-18T07:31:56.760Z,9.9
2017-03-18T07:32:37.259Z,9.89
2017-03-18T07:33:17.750Z,9.96
2017-03-18T07:33:58.261Z,9.94
2017-03-18T07:34:38.774Z,9.91
2017-03-18T07:35:19.303Z,9.91
2017-03-18T07:35:59.841Z,9.87
2017-03-18T07:36:40.332Z,9.96
2017-03-18T07:37:20.849Z,9.93
2017-03-18T07:38:01.366Z,9.96
2017-03-18T07:38:41.891Z,9.94
2017-03-18T07:39:22.411Z,9.96
2017-03-18T07:40:02.930Z,10.01
2017-03-18T07:40:43.431Z,9.99
2017-03-18T07:41:23.957Z,10.02
2017-03-18T07:42:04.496Z,10.01
2017-03-18T07:42:45.009Z,10.05
2017-03-18T07:43:25.506Z,10.04
2017-03-18T07:44:06.076Z,10.05
2017-03-18T07:44:46.616Z,10.01
2017-03-18T07:45:27.128Z,9.99
2017-03-18T07:46:07.623Z,10.02
2017-03-18T07:46:48.170Z,10.05
2017-03-18T07:47:28.668Z,10.12
2017-03-18T07:48:09.182Z,10.18
2017-03-18T07:48:49.700Z,10.12
2017-03-18T07:49:30.186Z,10.12
2017-03-18T07:50:10.705Z,10.17
2017-03-18T07:50:51.220Z,10.15
2017-03-18T07:51:31.739Z,10.14
2017-03-18T07:52:12.259Z,10.18
2017-03-18T07:52:52.782Z,10.23
2017-03-18T07:53:33.299Z,10.26
2017-03-18T07:54:13.786Z,10.23
2017-03-18T07:54:54.326Z,10.25
2017-03-18T07:55:34.842Z,10.26
2017-03-18T07:56:15.341Z,10.29
2017-03-18T07:56:55.843Z,10.23
2017-03-18T07:57:36.363Z,10.29
2017-03-18T07:58:16.872Z,10.25
2017-03-18T07:58:57.408Z,10.29
2017-03-18T07:59:37.928Z,10.27
2017-03-18T08:00:18.482Z,10.25
2017-03-18T08:00:58.998Z,10.32
2017-03-18T08:01:39.505Z,10.34
2017-03-18T08:02:20.013Z,10.33
2017-03-18T08:03:00.532Z,10.44
2017-03-18T08:03:41.089Z,10.44
2017-03-18T08:04:21.594Z,10.34
2017-03-18T08:05:02.113Z,10.34
2017-03-18T08:05:42.641Z,10.41
2017-03-18T08:06:23.152Z,10.33
2017-03-18T08:07:03.677Z,10.42
2017-03-18T08:07:44.209Z,10.4
2017-03-18T08:08:24.714Z,10.34
2017-03-18T08:09:05.220Z,10.36
2017-03-18T08:09:45.755Z,10.42
2017-03-18T08:10:26.249Z,10.36
2017-03-18T08:11:06.774Z,10.42
2017-03-18T08:11:47.283Z,10.4
2017-03-18T08:12:27.812Z,10.4
2017-03-18T08:13:08.312Z,10.38
2017-03-18T08:13:48.827Z,10.38
2017-03-18T08:14:29.343Z,10.36
2017-03-18T08:15:09.881Z,10.41
2017-03-18T08:15:50.519Z,10.42
2017-03-18T08:16:32.056Z,10.38
2017-03-18T08:17:12.529Z,10.38
2017-03-18T08:17:53.048Z,10.4
2017-03-18T08:18:33.546Z,10.45
2017-03-18T08:19:14.056Z,10.47
2017-03-18T08:19:54.572Z,10.38
2017-03-18T08:20:35.098Z,10.44
2017-03-18T08:21:15.600Z,10.4
2017-03-18T08:21:56.301Z,10.41
2017-03-18T08:22:36.818Z,10.42
2017-03-18T08:23:17.336Z,10.51
2017-03-18T08:23:57.837Z,10.41
2017-03-18T08:24:38.365Z,10.48
2017-03-18T08:25:18.952Z,10.59
2017-03-18T08:25:59.521Z,10.52
2017-03-18T08:26:40.080Z,10.53
2017-03-18T08:27:20.588Z,10.63
2017-03-18T08:28:01.112Z,10.6
2017-03-18T08:28:41.675Z,10.66
2017-03-18T08:29:22.187Z,10.63
2017-03-18T08:30:02.720Z,10.66
2017-03-18T08:30:43.249Z,10.63
2017-03-18T08:31:23.778Z,10.66
2017-03-18T08:32:04.286Z,10.63
2017-03-18T08:32:44.798Z,10.7
2017-03-18T08:33:25.321Z,10.73
2017-03-18T08:34:05.840Z,10.64
2017-03-18T08:34:46.356Z,10.66
2017-03-18T08:35:26.854Z,10.79
2017-03-18T08:36:07.356Z,10.79
2017-03-18T08:36:47.841Z,10.7
2017-03-18T08:37:28.349Z,10.73
2017-03-18T08:38:09.350Z,10.73
2017-03-18T08:38:49.863Z,10.74
2017-03-18T08:39:30.393Z,10.71
2017-03-18T08:40:10.909Z,10.84
2017-03-18T08:40:51.427Z,10.79
2017-03-18T08:41:31.939Z,10.81
2017-03-18T08:42:12.448Z,10.84
2017-03-18T08:42:52.978Z,10.85
2017-03-18T08:43:33.501Z,10.84
2017-03-18T08:44:14.024Z,10.88
2017-03-18T08:44:54.526Z,10.92
2017-03-18T08:45:35.032Z,10.88
2017-03-18T08:46:15.552Z,10.85
2017-03-18T08:46:56.070Z,10.91
2017-03-18T08:47:36.576Z,10.97
2017-03-18T08:48:17.097Z,10.96
2017-03-18T08:48:57.610Z,10.96
2017-03-18T08:49:38.176Z,10.97
2017-03-18T08:50:18.680Z,11.02
2017-03-18T08:50:59.195Z,10.99
2017-03-18T08:51:39.758Z,11.02
2017-03-18T08:52:20.223Z,11.03
2017-03-18T08:53:00.724Z,11.03
2017-03-18T08:53:41.248Z,11.03
2017-03-18T08:54:21.776Z,11.04
2017-03-18T08:55:02.263Z,11.03
2017-03-18T08:55:42.787Z,11.06
2017-03-18T08:56:23.322Z,11.02
2017-03-18T08:57:03.843Z,11
2017-03-18T08:57:44.379Z,10.97
2017-03-18T08:58:24.903Z,11.04